Time;durP1;ratioP1;P1;durP2;ratioP2;P2;SDS_P1;SDS_P2;PMS_P1;PMS_P2;Temp;Humidity;BMP_temperature;BMP_pressure;BME280_temperature;BME280_humidity;BME280_pressure;Samples;Min_cycle;Max_cycle;Signal;HPM_P1;HPM_P2
2021/07/02 00:02:01;;;;;;;8.25;6.60;;;23.10;99.90;;;;;;5026367;28;20053;-93
2021/07/02 00:04:26;;;;;;;9.30;6.82;;;23.00;99.90;;;;;;5019776;28;20044;-94
2021/07/02 00:06:52;;;;;;;9.55;7.05;;;23.00;99.90;;;;;;5019759;28;20468;-94
2021/07/02 00:09:18;;;;;;;9.27;7.03;;;23.00;99.90;;;;;;5019847;28;20448;-95
2021/07/02 00:11:43;;;;;;;8.48;7.07;;;23.00;99.90;;;;;;5019662;28;20088;-95
2021/07/02 00:14:09;;;;;;;9.60;7.00;;;23.00;99.90;;;;;;5019699;28;20068;-93
2021/07/02 00:16:35;;;;;;;11.07;7.68;;;23.00;99.90;;;;;;5019854;28;20040;-95
2021/07/02 00:19:01;;;;;;;8.35;7.38;;;22.90;99.90;;;;;;5019840;28;20557;-95
2021/07/02 00:21:27;;;;;;;8.05;7.25;;;22.90;99.90;;;;;;5019641;28;20052;-92
2021/07/02 00:23:53;;;;;;;9.30;7.13;;;22.90;99.90;;;;;;5019496;28;20041;-93
2021/07/02 00:26:19;;;;;;;9.15;7.05;;;22.80;99.90;;;;;;5019304;28;20061;-93
2021/07/02 00:28:44;;;;;;;8.68;7.32;;;22.80;99.90;;;;;;5019407;28;20025;-94
2021/07/02 00:31:10;;;;;;;9.45;7.28;;;22.80;99.90;;;;;;5020017;28;20029;-92
2021/07/02 00:33:36;;;;;;;8.65;7.30;;;22.80;99.90;;;;;;5019426;28;20120;-94
2021/07/02 00:36:02;;;;;;;8.77;7.10;;;22.70;99.90;;;;;;5019362;28;20163;-92
2021/07/02 00:38:27;;;;;;;7.60;6.85;;;22.70;99.90;;;;;;5036831;28;20485;-93
2021/07/02 00:40:53;;;;;;;7.65;6.88;;;22.70;99.90;;;;;;5019330;28;20095;-94
2021/07/02 00:43:19;;;;;;;10.13;7.55;;;22.70;99.90;;;;;;5019097;28;20116;-92
2021/07/02 00:45:44;;;;;;;9.55;7.00;;;22.70;99.90;;;;;;5019171;28;20042;-92
2021/07/02 00:48:10;;;;;;;8.23;7.20;;;22.70;99.90;;;;;;5019080;28;20080;-93
2021/07/02 00:50:36;;;;;;;11.25;7.47;;;22.60;99.90;;;;;;5019099;28;20491;-94
2021/07/02 00:53:04;;;;;;;11.05;6.93;;;22.70;99.90;;;;;;5019000;28;20095;-93
2021/07/02 00:55:30;;;;;;;8.18;7.30;;;22.60;99.90;;;;;;5019106;28;20018;-93
2021/07/02 00:57:56;;;;;;;9.38;7.05;;;22.60;99.90;;;;;;5019074;28;20386;-93
2021/07/02 01:00:22;;;;;;;14.23;7.50;;;22.60;99.90;;;;;;5018733;28;20029;-92
2021/07/02 01:02:48;;;;;;;9.73;6.80;;;22.60;99.90;;;;;;5038219;28;20040;-93
2021/07/02 01:05:14;;;;;;;8.30;7.28;;;22.60;99.90;;;;;;5038682;28;20024;-93
2021/07/02 01:07:41;;;;;;;12.18;7.40;;;22.60;99.90;;;;;;5038474;28;20032;-93
2021/07/02 01:10:07;;;;;;;11.80;7.38;;;22.50;99.90;;;;;;5038395;28;20028;-93
2021/07/02 01:12:34;;;;;;;11.98;7.82;;;22.50;99.90;;;;;;5038504;28;20040;-92
2021/07/02 01:14:59;;;;;;;9.50;7.47;;;22.50;99.90;;;;;;5038367;28;20051;-94
2021/07/02 01:17:25;;;;;;;7.80;7.10;;;22.50;99.90;;;;;;5039602;28;20116;-94
2021/07/02 01:19:52;;;;;;;9.93;7.63;;;22.40;99.90;;;;;;5038698;28;20033;-93
2021/07/02 01:22:25;;;;;;;9.27;7.68;;;22.50;99.90;;;;;;5040047;28;20028;-93
2021/07/02 01:24:55;;;;;;;10.75;7.40;;;22.40;99.90;;;;;;5056320;28;20053;-94
2021/07/02 01:27:21;;;;;;;8.13;6.88;;;22.40;99.90;;;;;;5038143;28;20083;-93
2021/07/02 01:29:47;;;;;;;10.75;7.18;;;22.40;99.90;;;;;;5038148;28;20029;-93
2021/07/02 01:32:17;;;;;;;10.82;7.50;;;22.50;99.90;;;;;;5037902;28;20021;-93
2021/07/02 01:34:43;;;;;;;8.13;7.25;;;22.40;99.90;;;;;;5038942;28;20064;-93
2021/07/02 01:37:10;;;;;;;7.97;7.13;;;22.40;99.90;;;;;;5038227;28;20029;-92
2021/07/02 01:39:37;;;;;;;7.80;7.00;;;22.40;99.90;;;;;;5038168;28;20032;-93
2021/07/02 01:42:10;;;;;;;11.23;8.15;;;22.40;99.90;;;;;;5037678;28;20028;-92
2021/07/02 01:44:38;;;;;;;12.70;9.15;;;22.40;99.90;;;;;;5037847;28;20028;-93
2021/07/02 01:47:04;;;;;;;12.55;9.63;;;22.30;99.90;;;;;;5037795;28;20051;-93
2021/07/02 01:49:30;;;;;;;11.50;10.13;;;22.30;99.90;;;;;;5037710;28;20025;-93
2021/07/02 01:51:56;;;;;;;13.85;10.60;;;22.30;99.90;;;;;;5037829;28;20025;-93
2021/07/02 01:54:21;;;;;;;12.88;10.57;;;22.30;99.90;;;;;;5037627;28;20029;-93
2021/07/02 01:56:48;;;;;;;14.60;10.13;;;22.20;99.90;;;;;;5037516;28;20078;-93
2021/07/02 01:59:18;;;;;;;11.43;9.32;;;22.20;99.90;;;;;;5037588;28;20119;-94
2021/07/02 02:01:46;;;;;;;10.55;9.30;;;22.10;99.90;;;;;;5026292;28;20072;-94
2021/07/02 02:04:12;;;;;;;9.63;8.73;;;22.10;99.90;;;;;;5017412;28;20037;-93
2021/07/02 02:06:38;;;;;;;9.63;8.60;;;22.10;99.90;;;;;;5017591;28;20112;-93
2021/07/02 02:09:05;;;;;;;10.40;8.93;;;22.10;99.90;;;;;;5017667;28;20021;-92
2021/07/02 02:11:31;;;;;;;13.00;10.43;;;22.10;99.90;;;;;;5017113;28;20057;-92
2021/07/02 02:13:57;;;;;;;16.08;11.38;;;22.10;99.90;;;;;;5017488;28;20032;-94
2021/07/02 02:16:23;;;;;;;15.63;12.90;;;22.10;99.90;;;;;;5017517;28;20029;-93
2021/07/02 02:18:48;;;;;;;16.20;13.23;;;22.10;99.90;;;;;;5017638;28;20063;-93
2021/07/02 02:21:14;;;;;;;18.88;13.50;;;22.20;99.90;;;;;;5017485;28;20159;-94
2021/07/02 02:23:40;;;;;;;19.23;13.07;;;22.20;99.90;;;;;;5017633;28;20029;-93
2021/07/02 02:26:05;;;;;;;19.92;13.90;;;22.20;99.90;;;;;;5017367;28;20021;-93
2021/07/02 02:28:31;;;;;;;19.83;13.63;;;22.20;99.90;;;;;;5017232;28;20467;-94
2021/07/02 02:30:57;;;;;;;16.13;11.25;;;22.20;99.90;;;;;;5008117;28;20030;-93
2021/07/02 02:33:23;;;;;;;13.35;9.55;;;22.20;99.90;;;;;;4997541;28;20026;-93
2021/07/02 02:35:48;;;;;;;9.98;7.85;;;22.20;99.90;;;;;;4997387;28;20080;-92
2021/07/02 02:38:14;;;;;;;9.82;7.65;;;22.20;99.90;;;;;;4997702;28;20076;-93
2021/07/02 02:40:40;;;;;;;9.15;7.45;;;22.30;99.90;;;;;;4997485;28;20057;-93
2021/07/02 02:43:05;;;;;;;8.50;7.45;;;22.30;99.90;;;;;;4997411;28;20109;-94
2021/07/02 02:45:31;;;;;;;8.18;7.07;;;22.30;99.90;;;;;;4997346;28;20037;-96
2021/07/02 02:47:57;;;;;;;7.68;6.97;;;22.30;99.90;;;;;;4997286;28;20022;-92
2021/07/02 02:50:23;;;;;;;10.57;7.50;;;22.30;99.90;;;;;;4997593;28;20017;-93
2021/07/02 02:52:48;;;;;;;7.50;6.78;;;22.30;99.90;;;;;;4997269;28;20030;-93
2021/07/02 02:55:14;;;;;;;9.75;7.15;;;22.40;99.90;;;;;;4997367;28;20079;-95
2021/07/02 02:57:40;;;;;;;8.20;7.32;;;22.30;99.90;;;;;;4997688;28;20436;-93
2021/07/02 03:00:09;;;;;;;8.32;6.82;;;22.40;99.90;;;;;;4997473;28;20030;-93
2021/07/02 03:02:34;;;;;;;8.40;7.43;;;22.40;99.90;;;;;;5014669;28;20488;-93
2021/07/02 03:05:00;;;;;;;7.97;6.82;;;22.40;99.90;;;;;;5017056;28;20030;-94
2021/07/02 03:07:26;;;;;;;8.00;7.28;;;22.40;99.90;;;;;;5016879;28;20083;-95
2021/07/02 03:09:51;;;;;;;8.98;7.97;;;22.40;99.90;;;;;;5017334;28;20026;-92
2021/07/02 03:12:17;;;;;;;9.35;7.70;;;22.40;99.90;;;;;;5018889;28;20471;-93
2021/07/02 03:14:43;;;;;;;8.35;7.07;;;22.40;99.90;;;;;;5016713;28;20029;-95
2021/07/02 03:17:09;;;;;;;9.80;7.82;;;22.40;99.90;;;;;;5017102;28;20116;-94
2021/07/02 03:19:35;;;;;;;8.18;7.38;;;22.40;99.90;;;;;;5024561;28;20021;-94
2021/07/02 03:22:00;;;;;;;8.65;7.85;;;22.50;99.90;;;;;;5024173;28;20395;-94
2021/07/02 03:24:26;;;;;;;9.18;8.27;;;22.50;99.90;;;;;;5020289;28;20026;-96
2021/07/02 03:26:52;;;;;;;11.05;7.65;;;22.50;99.90;;;;;;5020615;28;20021;-96
2021/07/02 03:29:18;;;;;;;9.65;8.00;;;22.50;99.90;;;;;;5020583;28;20021;-93
2021/07/02 03:31:43;;;;;;;12.75;8.70;;;22.50;99.90;;;;;;5020433;28;20021;-94
2021/07/02 18:40:28;;;;;;;8.25;7.03;;;21.20;99.90;;;;;;5111637;27;20369;-89
2021/07/02 18:42:53;;;;;;;11.32;8.88;;;21.00;99.90;;;;;;5109183;28;20028;-83
2021/07/02 18:45:19;;;;;;;12.35;9.40;;;21.10;99.90;;;;;;5091877;28;20033;-90
2021/07/02 18:47:45;;;;;;;11.35;8.27;;;21.20;99.90;;;;;;5090204;28;20028;-86
2021/07/02 18:50:14;;;;;;;19.85;14.05;;;21.30;99.90;;;;;;5090158;28;20031;-95
2021/07/02 18:52:40;;;;;;;21.60;14.63;;;21.50;99.90;;;;;;5090321;28;20028;-84
2021/07/02 18:55:08;;;;;;;10.45;7.75;;;21.60;99.90;;;;;;5090109;28;20035;-84
2021/07/02 18:57:34;;;;;;;11.05;5.72;;;21.70;99.90;;;;;;5092358;28;20024;-90
2021/07/02 19:00:03;;;;;;;9.85;5.50;;;21.80;99.90;;;;;;5111444;28;20031;-88
2021/07/02 19:02:29;;;;;;;9.30;6.78;;;21.90;99.90;;;;;;5112313;28;20039;-93
2021/07/02 19:04:55;;;;;;;7.72;5.38;;;22.00;99.90;;;;;;5111656;28;20416;-96
2021/07/02 19:07:21;;;;;;;20.92;17.35;;;22.00;99.90;;;;;;5113053;28;20027;-88
2021/07/02 19:09:46;;;;;;;17.23;12.45;;;22.10;99.90;;;;;;5111421;28;20494;-96
2021/07/02 19:12:12;;;;;;;11.40;8.88;;;22.20;99.90;;;;;;5111078;28;20024;-91
2021/07/02 19:14:40;;;;;;;4.90;4.38;;;22.20;99.90;;;;;;5111334;28;20016;-96
2021/07/02 19:17:06;;;;;;;9.70;8.35;;;22.30;99.90;;;;;;5112227;28;20023;-96
2021/07/02 19:19:32;;;;;;;6.18;4.72;;;22.30;99.90;;;;;;5111063;28;20035;-96
2021/07/02 19:21:58;;;;;;;7.97;4.50;;;22.30;99.90;;;;;;5110821;28;20069;-96
2021/07/02 19:24:24;;;;;;;5.65;3.55;;;22.40;99.90;;;;;;5110693;28;20024;-94
2021/07/02 19:26:50;;;;;;;4.80;3.88;;;22.40;99.90;;;;;;5110775;28;20390;-95
2021/07/02 19:29:17;;;;;;;5.28;4.03;;;22.50;99.90;;;;;;5100993;28;20028;-94
2021/07/02 19:31:43;;;;;;;4.15;3.75;;;22.50;99.90;;;;;;5091011;28;20032;-91
2021/07/02 19:34:10;;;;;;;4.28;3.63;;;22.50;99.90;;;;;;5090426;28;20166;-92
2021/07/02 19:36:36;;;;;;;3.47;3.17;;;22.60;99.90;;;;;;5090168;28;20025;-89
2021/07/02 19:39:05;;;;;;;3.63;3.33;;;22.60;99.90;;;;;;5091053;28;20055;-90
2021/07/02 19:41:32;;;;;;;4.20;3.47;;;22.70;99.90;;;;;;5091571;28;20127;-92
2021/07/02 19:43:57;;;;;;;6.05;4.32;;;22.70;99.90;;;;;;5090321;28;20048;-96
2021/07/02 19:46:24;;;;;;;5.07;3.97;;;22.70;99.90;;;;;;5091271;28;20090;-96
2021/07/02 19:48:50;;;;;;;3.63;3.33;;;22.70;99.90;;;;;;5089483;28;20145;-91
2021/07/02 19:51:19;;;;;;;4.18;3.60;;;22.70;99.90;;;;;;5078805;28;20033;-92
2021/07/02 19:53:46;;;;;;;5.22;3.80;;;22.70;99.90;;;;;;5076307;28;20413;-94
2021/07/02 19:56:11;;;;;;;4.75;3.10;;;22.70;99.90;;;;;;5076098;28;20024;-95
2021/07/02 19:58:37;;;;;;;4.32;3.67;;;22.70;99.90;;;;;;5078473;28;20123;-91
2021/07/02 20:01:04;;;;;;;3.72;3.00;;;22.70;99.90;;;;;;5076517;28;20056;-92
2021/07/02 20:03:30;;;;;;;3.65;2.88;;;22.80;99.90;;;;;;5083366;28;20485;-92
2021/07/02 20:05:56;;;;;;;3.05;2.78;;;22.80;99.90;;;;;;5096329;28;20070;-88
2021/07/02 20:08:23;;;;;;;3.03;2.70;;;22.70;99.90;;;;;;5095415;28;20024;-89
2021/07/02 20:10:51;;;;;;;2.90;2.63;;;22.70;99.90;;;;;;5095279;28;20081;-88
2021/07/02 20:13:16;;;;;;;3.10;2.80;;;22.70;99.90;;;;;;5095286;28;20482;-88
2021/07/02 20:15:42;;;;;;;5.25;3.25;;;22.70;99.90;;;;;;5095337;28;20032;-88
2021/07/02 20:18:08;;;;;;;3.10;2.80;;;22.70;99.90;;;;;;5095111;28;20119;-88
2021/07/02 20:20:35;;;;;;;3.30;3.00;;;22.70;99.90;;;;;;5095052;28;20023;-87
2021/07/02 20:23:01;;;;;;;3.95;3.20;;;22.70;99.90;;;;;;5095103;28;20031;-88
2021/07/02 20:25:26;;;;;;;2.88;2.67;;;22.80;99.90;;;;;;5094898;28;20024;-88
2021/07/02 20:27:53;;;;;;;3.28;2.60;;;22.80;99.90;;;;;;5091179;28;20028;-88
2021/07/02 20:30:19;;;;;;;2.15;2.05;;;22.80;99.90;;;;;;5074718;28;20382;-88
2021/07/02 20:32:45;;;;;;;4.50;1.77;;;22.80;99.90;;;;;;5076328;28;20032;-87
2021/07/02 20:35:11;;;;;;;2.08;1.67;;;22.80;99.90;;;;;;5075718;28;20028;-88
2021/07/02 20:37:42;;;;;;;2.85;2.47;;;22.80;99.90;;;;;;5074507;28;20390;-87
2021/07/02 20:40:08;;;;;;;5.07;3.10;;;22.70;99.90;;;;;;5074217;28;20063;-88
2021/07/02 20:42:34;;;;;;;5.10;3.40;;;22.70;99.90;;;;;;5075881;28;20029;-87
2021/07/02 20:45:00;;;;;;;4.63;3.30;;;22.60;99.90;;;;;;5075517;28;20023;-87
2021/07/02 20:47:25;;;;;;;3.92;2.70;;;22.60;99.90;;;;;;5074272;28;20024;-87
2021/07/02 20:49:51;;;;;;;4.13;3.00;;;22.50;99.90;;;;;;5074372;28;20032;-87
2021/07/02 20:52:17;;;;;;;5.25;2.70;;;22.50;99.90;;;;;;5074220;28;20471;-87
2021/07/02 20:54:42;;;;;;;4.20;3.22;;;22.40;99.90;;;;;;5075425;28;20028;-88
2021/07/02 20:57:08;;;;;;;5.20;3.58;;;22.50;99.90;;;;;;5073902;28;20020;-87
2021/07/02 20:59:33;;;;;;;3.97;2.90;;;22.50;99.90;;;;;;5073885;28;20032;-87
2021/07/02 21:01:59;;;;;;;2.83;2.50;;;22.40;99.90;;;;;;5072905;28;20035;-87
2021/07/02 21:04:25;;;;;;;4.30;2.90;;;22.40;99.90;;;;;;5075138;28;20367;-87
2021/07/02 21:06:50;;;;;;;3.88;2.95;;;22.40;99.90;;;;;;5073935;28;20059;-87
2021/07/02 21:09:16;;;;;;;3.35;3.05;;;22.40;99.90;;;;;;5088184;28;20027;-87
2021/07/02 21:11:43;;;;;;;4.28;3.38;;;22.40;99.90;;;;;;5094005;28;20081;-87
2021/07/02 21:14:10;;;;;;;4.60;3.67;;;22.40;99.90;;;;;;5093842;28;20028;-87
2021/07/02 21:16:37;;;;;;;5.85;3.97;;;22.50;99.90;;;;;;5093971;28;20505;-87
2021/07/02 21:19:03;;;;;;;5.30;3.75;;;22.50;99.90;;;;;;5093730;28;20466;-86
2021/07/02 21:21:29;;;;;;;5.20;3.95;;;22.50;99.90;;;;;;5093736;28;20034;-87
2021/07/02 21:23:55;;;;;;;4.13;3.72;;;22.40;99.90;;;;;;5093688;28;20097;-87
2021/07/02 21:26:21;;;;;;;6.50;3.67;;;22.50;99.90;;;;;;5094747;28;20459;-86
2021/07/02 21:28:46;;;;;;;4.18;3.50;;;22.40;99.90;;;;;;5083142;28;20028;-87
2021/07/02 21:31:12;;;;;;;6.72;4.50;;;22.30;99.90;;;;;;5074494;28;20025;-86
2021/07/02 21:33:38;;;;;;;6.90;4.55;;;22.30;99.90;;;;;;5073269;28;20024;-86
2021/07/02 21:36:03;;;;;;;5.47;4.07;;;22.30;99.90;;;;;;5073193;28;20034;-86
2021/07/02 21:38:29;;;;;;;4.85;4.32;;;22.30;99.90;;;;;;5072814;28;20044;-86
2021/07/02 21:40:55;;;;;;;4.53;4.10;;;22.20;99.90;;;;;;5073088;28;20423;-86
2021/07/02 21:43:21;;;;;;;7.00;4.05;;;22.20;99.90;;;;;;5087169;28;20034;-85
2021/07/02 21:45:46;;;;;;;5.20;4.00;;;22.10;99.90;;;;;;5093093;28;20031;-86
2021/07/02 21:48:12;;;;;;;3.42;3.13;;;22.10;99.90;;;;;;5094789;28;20023;-86
2021/07/02 21:50:38;;;;;;;5.20;3.08;;;22.10;99.90;;;;;;5094461;28;20073;-86
2021/07/02 21:53:04;;;;;;;6.30;3.42;;;22.10;99.90;;;;;;5093239;28;20398;-86
2021/07/02 21:55:29;;;;;;;5.45;3.10;;;22.10;99.90;;;;;;5093129;28;20024;-86
2021/07/02 21:57:55;;;;;;;4.63;2.88;;;22.10;99.90;;;;;;5093082;28;20107;-86
2021/07/02 22:00:21;;;;;;;4.10;3.05;;;22.10;99.90;;;;;;5093988;28;20385;-86
2021/07/02 22:02:52;;;;;;;5.00;3.42;;;22.10;99.90;;;;;;5084017;28;20024;-86
2021/07/02 22:05:19;;;;;;;5.43;3.40;;;22.10;99.90;;;;;;5072674;28;20020;-86
2021/07/02 22:07:44;;;;;;;4.78;3.42;;;22.10;99.90;;;;;;5073932;28;20029;-85
2021/07/02 22:10:10;;;;;;;5.75;3.53;;;22.20;99.90;;;;;;5072567;28;20032;-84
2021/07/02 22:12:36;;;;;;;7.68;4.32;;;22.20;99.90;;;;;;5072596;28;20506;-84
2021/07/02 22:15:03;;;;;;;7.28;4.18;;;22.20;99.90;;;;;;5072223;28;20029;-84
2021/07/02 22:17:29;;;;;;;7.88;4.03;;;22.20;99.90;;;;;;5073718;28;20028;-84
2021/07/02 22:19:54;;;;;;;8.77;4.25;;;22.10;99.90;;;;;;5073666;28;20028;-84
2021/07/02 22:22:20;;;;;;;7.90;4.15;;;22.00;99.90;;;;;;5079617;28;20078;-83
2021/07/02 22:24:45;;;;;;;7.93;4.25;;;22.00;99.90;;;;;;5092674;28;20051;-83
2021/07/02 22:27:13;;;;;;;8.35;4.30;;;22.00;99.90;;;;;;5093868;28;20027;-83
2021/07/02 22:29:39;;;;;;;10.05;5.00;;;21.90;99.90;;;;;;5092546;28;20027;-83
2021/07/02 22:32:06;;;;;;;9.60;5.00;;;22.00;99.90;;;;;;5093821;28;20494;-83
2021/07/02 22:34:32;;;;;;;8.40;4.45;;;21.90;99.90;;;;;;5093778;28;20388;-83
2021/07/02 22:36:58;;;;;;;8.13;4.50;;;21.90;99.90;;;;;;5093723;28;20023;-83
2021/07/02 22:39:24;;;;;;;6.68;4.28;;;21.90;99.90;;;;;;5093440;28;20097;-83
2021/07/02 22:41:49;;;;;;;4.90;3.95;;;22.00;99.90;;;;;;5089356;28;20500;-82
2021/07/02 22:44:15;;;;;;;4.85;3.60;;;22.00;99.90;;;;;;5072176;28;20036;-82
2021/07/02 22:46:41;;;;;;;6.07;3.47;;;22.00;99.90;;;;;;5073461;28;20017;-83
2021/07/02 22:49:07;;;;;;;3.50;3.15;;;22.00;99.90;;;;;;5073454;28;20524;-83
2021/07/02 22:51:33;;;;;;;6.50;3.53;;;22.00;99.90;;;;;;5073427;28;20032;-83
2021/07/02 22:53:59;;;;;;;5.93;3.35;;;22.00;99.90;;;;;;5090190;28;20096;-83
2021/07/02 22:56:25;;;;;;;3.75;2.95;;;22.10;99.90;;;;;;5092547;28;20530;-83
2021/07/02 22:58:51;;;;;;;4.40;3.83;;;22.00;99.90;;;;;;5093459;28;20036;-83
2021/07/02 23:01:17;;;;;;;4.70;3.10;;;22.00;99.90;;;;;;5092276;28;20382;-83
2021/07/02 23:03:42;;;;;;;4.97;3.40;;;22.10;99.90;;;;;;5073670;28;20025;-82
2021/07/02 23:06:08;;;;;;;6.82;4.20;;;22.10;99.90;;;;;;5088899;28;20024;-83
2021/07/02 23:08:34;;;;;;;5.80;3.53;;;22.10;99.90;;;;;;5071971;28;20025;-83
2021/07/02 23:10:59;;;;;;;5.15;3.78;;;22.10;99.90;;;;;;5081349;28;20035;-83
2021/07/02 23:13:25;;;;;;;7.38;4.07;;;22.10;99.90;;;;;;5092070;28;20028;-83
2021/07/02 23:15:51;;;;;;;4.57;3.63;;;22.10;99.90;;;;;;5092133;28;20081;-83
2021/07/02 23:18:16;;;;;;;4.63;3.80;;;22.00;99.90;;;;;;5092012;28;20530;-83
2021/07/02 23:20:42;;;;;;;5.93;4.25;;;22.00;99.90;;;;;;5093378;28;20058;-83
2021/07/02 23:23:07;;;;;;;4.93;4.00;;;22.00;99.90;;;;;;5093297;28;20020;-83
2021/07/02 23:25:33;;;;;;;4.35;3.90;;;22.10;99.90;;;;;;5094569;28;20024;-83
2021/07/02 23:27:59;;;;;;;5.85;3.97;;;22.10;99.90;;;;;;5097096;28;20028;-83
2021/07/02 23:30:24;;;;;;;5.20;3.60;;;22.00;99.90;;;;;;5091967;28;20538;-83
2021/07/02 23:32:50;;;;;;;4.45;3.70;;;21.90;99.90;;;;;;5077019;28;20059;-83
2021/07/02 23:35:16;;;;;;;5.15;3.90;;;21.80;99.90;;;;;;5076668;28;20028;-83
2021/07/02 23:37:42;;;;;;;4.97;3.80;;;21.80;99.90;;;;;;5076963;28;20024;-83
2021/07/02 23:40:08;;;;;;;4.78;4.03;;;21.70;99.90;;;;;;5076363;28;20120;-83
2021/07/02 23:42:34;;;;;;;6.10;4.60;;;21.70;99.90;;;;;;5075270;28;20031;-83
2021/07/02 23:45:00;;;;;;;5.85;4.10;;;21.60;99.90;;;;;;5075097;28;20112;-83
2021/07/02 23:47:26;;;;;;;4.32;3.90;;;21.60;99.90;;;;;;5076529;28;20471;-83
2021/07/02 23:49:52;;;;;;;6.10;4.60;;;21.60;99.90;;;;;;5077673;28;20039;-83
2021/07/02 23:52:17;;;;;;;7.25;4.63;;;21.50;99.90;;;;;;5097007;28;20094;-83
2021/07/02 23:54:43;;;;;;;9.45;6.20;;;21.40;99.90;;;;;;5096908;28;20028;-83
2021/07/02 23:57:09;;;;;;;7.38;5.50;;;21.40;99.90;;;;;;5096891;28;20035;-83
2021/07/02 23:59:34;;;;;;;8.45;6.18;;;21.40;99.90;;;;;;5095140;28;20038;-84
